createdAt,value
2022-11-03T00:01:44.928Z,40.46
2022-11-03T00:06:49.202Z,39.93
2022-11-03T00:11:47.437Z,39.20
2022-11-03T00:16:44.744Z,39.14
2022-11-03T00:21:41.760Z,39.50
2022-11-03T00:26:41.008Z,39.34
2022-11-03T00:31:38.680Z,38.86
2022-11-03T00:36:39.486Z,39.31
2022-11-03T00:41:36.473Z,39.74
2022-11-03T00:46:34.621Z,40.23
2022-11-03T00:51:35.443Z,41.70
2022-11-03T00:56:33.534Z,42.14
2022-11-03T01:01:34.005Z,43.14
2022-11-03T01:06:50.453Z,43.85
2022-11-03T01:11:51.658Z,44.27
2022-11-03T01:16:48.308Z,44.83
2022-11-03T01:21:48.023Z,44.66
2022-11-03T01:26:46.710Z,44.82
2022-11-03T01:31:45.750Z,45.29
2022-11-03T01:36:42.645Z,45.40
2022-11-03T01:41:42.156Z,45.56
2022-11-03T01:46:40.152Z,45.73
2022-11-03T01:51:39.419Z,46.67
2022-11-03T01:56:38.431Z,47.38
2022-11-03T02:01:35.303Z,47.73
2022-11-03T02:06:32.043Z,47.96
2022-11-03T02:11:50.039Z,48.03
2022-11-03T02:16:51.982Z,47.89
2022-11-03T02:21:55.047Z,48.03
2022-11-03T02:26:53.993Z,48.48
2022-11-03T02:31:56.207Z,48.96
2022-11-03T02:36:55.906Z,49.39
2022-11-03T02:41:56.864Z,49.91
2022-11-03T02:47:00.506Z,50.17
2022-11-03T02:52:00.401Z,50.15
2022-11-03T02:57:00.539Z,50.30
2022-11-03T03:01:59.985Z,50.12
2022-11-03T03:07:01.940Z,49.86
2022-11-03T03:12:00.443Z,49.43
2022-11-03T03:17:00.402Z,49.30
2022-11-03T03:22:00.965Z,48.94
2022-11-03T03:26:59.581Z,49.10
2022-11-03T03:32:01.568Z,48.89
2022-11-03T03:36:58.763Z,49.75
2022-11-03T03:41:56.129Z,50.53
2022-11-03T03:46:58.270Z,51.69
2022-11-03T03:51:56.045Z,51.96
2022-11-03T03:56:56.289Z,52.95
2022-11-03T04:01:53.240Z,53.21
2022-11-03T04:07:13.552Z,54.25
2022-11-03T04:12:32.243Z,54.85
2022-11-03T04:22:44.467Z,57.24
2022-11-03T04:27:41.726Z,57.44
2022-11-03T04:32:40.705Z,57.30
2022-11-03T04:37:42.492Z,58.00
2022-11-03T04:42:46.871Z,58.07
2022-11-03T04:47:43.678Z,58.36
2022-11-03T04:52:43.524Z,58.21
2022-11-03T04:57:43.168Z,58.02
2022-11-03T05:02:41.022Z,57.64
2022-11-03T05:07:37.582Z,57.90
2022-11-03T05:12:34.385Z,57.27
2022-11-03T05:17:31.088Z,57.81
2022-11-03T05:22:31.868Z,57.96
2022-11-03T05:27:31.432Z,58.59
2022-11-03T05:32:28.805Z,58.71
2022-11-03T05:37:31.375Z,58.50
2022-11-03T05:42:33.819Z,59.75
2022-11-03T05:47:32.795Z,58.79
2022-11-03T05:52:38.423Z,59.93
2022-11-03T05:57:38.827Z,59.64
2022-11-03T06:02:38.032Z,60.45
2022-11-03T06:07:34.711Z,59.92
2022-11-03T06:12:34.015Z,59.37
2022-11-03T06:17:34.388Z,59.41
2022-11-03T06:22:35.535Z,58.07
2022-11-03T06:27:34.355Z,58.72
2022-11-03T06:32:35.501Z,59.31
2022-11-03T06:37:32.486Z,59.08
2022-11-03T06:42:32.187Z,58.58
2022-11-03T06:47:29.321Z,58.26
2022-11-03T06:52:28.555Z,57.68
2022-11-03T06:57:25.143Z,57.21
2022-11-03T07:02:39.494Z,57.39
2022-11-03T07:07:41.560Z,57.36
2022-11-03T07:12:40.379Z,57.86
2022-11-03T07:17:37.392Z,56.47
2022-11-03T07:22:34.297Z,56.03
2022-11-03T07:27:32.864Z,54.68
2022-11-03T07:32:45.329Z,54.44
2022-11-03T07:37:44.861Z,53.41
2022-11-03T07:42:45.046Z,53.23
2022-11-03T07:47:47.258Z,52.72
2022-11-03T07:52:46.596Z,52.55
2022-11-03T07:57:44.067Z,52.07
2022-11-03T08:02:43.680Z,51.76
2022-11-03T08:07:40.407Z,51.74
2022-11-03T08:12:38.061Z,51.44
2022-11-03T08:17:35.287Z,51.71
2022-11-03T08:22:33.480Z,50.88
2022-11-03T08:27:30.588Z,51.15
2022-11-03T08:32:27.547Z,50.77
2022-11-03T08:37:24.870Z,49.88
2022-11-03T08:42:23.458Z,48.27
2022-11-03T08:47:20.538Z,47.91
2022-11-03T08:52:17.246Z,48.12
2022-11-03T08:57:16.943Z,47.64
2022-11-03T09:02:15.938Z,47.79
2022-11-03T09:07:12.794Z,48.02
2022-11-03T09:12:09.488Z,47.32
2022-11-03T09:17:08.252Z,47.45
2022-11-03T09:22:04.999Z,47.46
2022-11-03T09:27:02.500Z,47.28
2022-11-03T09:31:59.400Z,46.43
2022-11-03T09:37:00.780Z,46.08
2022-11-03T09:41:59.181Z,45.93
2022-11-03T09:46:58.493Z,46.82
2022-11-03T09:51:55.785Z,46.49
2022-11-03T09:56:54.762Z,45.93
2022-11-03T10:01:52.905Z,45.98
2022-11-03T10:06:49.609Z,46.04
2022-11-03T10:11:47.163Z,45.33
2022-11-03T10:16:53.495Z,44.98
2022-11-03T10:21:51.310Z,44.52
2022-11-03T10:26:48.677Z,44.56
2022-11-03T10:31:52.870Z,44.70
2022-11-03T10:37:09.108Z,44.21
2022-11-03T10:42:16.172Z,44.43
2022-11-03T10:47:22.712Z,44.76
2022-11-03T10:52:21.225Z,44.54
2022-11-03T10:57:20.211Z,43.90
2022-11-03T11:02:18.561Z,43.41
2022-11-03T11:07:19.775Z,42.50
2022-11-03T11:12:18.067Z,42.60
2022-11-03T11:17:29.531Z,42.50
2022-11-03T11:22:26.343Z,43.11
2022-11-03T11:27:44.794Z,42.46
2022-11-03T11:32:57.977Z,43.08
2022-11-03T11:37:54.729Z,42.86
2022-11-03T11:43:12.694Z,42.17
2022-11-03T11:48:18.932Z,42.32
2022-11-03T11:53:20.388Z,42.47
2022-11-03T11:58:19.559Z,42.47
2022-11-03T12:03:16.937Z,42.58
2022-11-03T12:08:20.748Z,42.22
2022-11-03T12:13:32.243Z,41.44
2022-11-03T12:18:38.862Z,41.92
2022-11-03T12:23:37.720Z,42.08
2022-11-03T12:28:35.489Z,42.18
2022-11-03T12:33:33.048Z,42.50
2022-11-03T12:38:29.762Z,42.88
2022-11-03T12:43:26.560Z,43.14
2022-11-03T12:48:23.335Z,43.01
2022-11-03T12:53:23.895Z,42.96
2022-11-03T12:58:22.496Z,43.07
2022-11-03T13:03:19.193Z,42.70
2022-11-03T13:13:18.962Z,42.69
2022-11-03T13:18:15.760Z,42.72
2022-11-03T13:23:12.695Z,42.53
2022-11-03T13:28:10.381Z,43.20
2022-11-03T13:33:07.927Z,42.77
2022-11-03T13:38:06.381Z,43.28
2022-11-03T13:43:03.200Z,43.74
2022-11-03T14:09:22.066Z,44.33
2022-11-03T14:14:22.247Z,44.39
2022-11-03T14:19:19.228Z,44.19
2022-11-03T14:24:16.077Z,44.53
2022-11-03T14:29:13.820Z,44.00
2022-11-03T14:34:13.048Z,43.89
2022-11-03T14:39:10.505Z,44.21
2022-11-03T14:44:07.515Z,44.28
2022-11-03T14:49:04.967Z,44.76
2022-11-03T14:54:02.476Z,45.29
2022-11-03T14:58:59.672Z,44.31
2022-11-03T15:03:56.482Z,43.73
2022-11-03T15:08:56.605Z,44.09
2022-11-03T15:13:54.828Z,44.33
2022-11-03T15:18:54.365Z,45.30
2022-11-03T15:29:09.364Z,45.52
2022-11-03T15:34:08.805Z,45.35
2022-11-03T15:39:05.636Z,45.20
2022-11-03T15:44:02.578Z,45.52
2022-11-03T15:49:04.457Z,45.54
2022-11-03T15:54:01.897Z,45.28
2022-11-03T15:58:58.642Z,46.19
2022-11-03T16:03:55.384Z,46.36
2022-11-03T16:08:52.823Z,46.13
2022-11-03T16:13:49.504Z,46.37
2022-11-03T16:18:51.593Z,46.05
2022-11-03T16:23:48.362Z,45.68
2022-11-03T16:28:45.782Z,45.33
2022-11-03T16:33:42.434Z,45.69
2022-11-03T16:38:39.279Z,45.35
2022-11-03T16:43:35.891Z,44.91
2022-11-03T16:48:33.361Z,44.95
2022-11-03T16:53:29.960Z,45.07
2022-11-03T16:58:26.589Z,44.72
2022-11-03T17:03:25.323Z,45.39
2022-11-03T17:13:39.367Z,45.35
2022-11-03T17:18:39.185Z,45.40
2022-11-03T17:23:38.966Z,45.20
2022-11-03T17:28:38.822Z,45.34
2022-11-03T17:33:37.255Z,45.43
2022-11-03T17:38:34.274Z,45.48
2022-11-03T17:43:32.046Z,45.28
2022-11-03T17:48:29.663Z,45.45
2022-11-03T17:53:30.263Z,45.25
2022-11-03T17:58:28.177Z,45.22
2022-11-03T18:03:26.031Z,44.99
2022-11-03T18:08:22.727Z,44.78
2022-11-03T18:13:20.878Z,44.65
2022-11-03T18:18:20.842Z,45.01
2022-11-03T18:23:22.265Z,45.36
2022-11-03T18:28:19.438Z,45.30
2022-11-03T18:33:18.339Z,44.85
2022-11-03T18:38:15.868Z,44.87
2022-11-03T18:43:14.102Z,44.93
2022-11-03T18:48:14.453Z,45.33
2022-11-03T18:53:13.351Z,45.25
2022-11-03T18:58:17.942Z,45.01
2022-11-03T19:03:15.493Z,45.05
2022-11-03T19:08:16.229Z,45.24
2022-11-03T19:13:15.375Z,44.87
2022-11-03T19:18:14.044Z,44.88
2022-11-03T19:23:10.960Z,44.67
2022-11-03T19:28:10.010Z,44.96
2022-11-03T19:33:07.890Z,44.84
2022-11-03T19:38:11.100Z,45.23
2022-11-03T19:43:09.003Z,45.31
2022-11-03T19:48:23.709Z,45.52
2022-11-03T19:53:23.730Z,46.34
2022-11-03T19:58:21.149Z,47.35
2022-11-03T20:03:18.079Z,47.56
2022-11-03T20:08:15.501Z,47.27
2022-11-03T20:13:14.313Z,46.93
2022-11-03T20:18:11.718Z,46.65
2022-11-03T20:23:15.085Z,45.89
2022-11-03T20:28:16.603Z,45.99
2022-11-03T20:33:16.792Z,45.98
2022-11-03T20:38:16.213Z,46.13
2022-11-03T20:43:20.549Z,46.91
2022-11-03T20:48:20.476Z,47.98
2022-11-03T20:53:18.912Z,49.25
2022-11-03T20:58:16.428Z,48.60
2022-11-03T21:03:31.428Z,48.52
2022-11-03T21:08:33.100Z,48.59
2022-11-03T21:13:29.739Z,49.48
2022-11-03T21:18:44.369Z,49.97
2022-11-03T21:23:42.778Z,51.90
2022-11-03T21:28:42.450Z,52.14
2022-11-03T21:33:39.109Z,52.50
2022-11-03T21:38:36.249Z,53.07
2022-11-03T21:43:52.436Z,53.52
2022-11-03T21:49:09.161Z,52.56
2022-11-03T21:54:05.850Z,52.28
2022-11-03T21:59:04.596Z,52.01
2022-11-03T22:04:01.308Z,53.36
2022-11-03T22:08:57.964Z,54.24
2022-11-03T22:13:58.201Z,55.57
2022-11-03T22:19:17.448Z,55.34
2022-11-03T22:24:32.310Z,55.91
2022-11-03T22:29:47.511Z,58.66
2022-11-03T22:35:03.156Z,58.50
2022-11-03T22:40:20.790Z,58.39
2022-11-03T22:45:35.219Z,58.36
2022-11-03T22:50:34.854Z,58.22
2022-11-03T22:55:31.652Z,58.74
2022-11-03T23:00:28.208Z,58.80
2022-11-03T23:05:24.905Z,58.24
2022-11-03T23:10:27.612Z,59.10
2022-11-03T23:15:33.269Z,58.59
2022-11-03T23:20:48.553Z,59.17
2022-11-03T23:25:48.078Z,60.26
2022-11-03T23:30:44.623Z,59.45
2022-11-03T23:35:41.189Z,60.18
2022-11-03T23:40:37.843Z,60.22
2022-11-03T23:45:59.117Z,59.75
2022-11-03T23:50:56.229Z,60.47
2022-11-03T23:56:08.356Z,60.12
